createdAt,value
2023-02-08T00:01:28.567Z,26.50
2023-02-08T00:03:56.660Z,30.00
2023-02-08T00:06:24.797Z,24.40
2023-02-08T00:08:52.800Z,29.20
2023-02-08T00:11:21.169Z,30.20
2023-02-08T00:13:49.654Z,31.90
2023-02-08T00:16:18.848Z,31.10
2023-02-08T00:18:46.986Z,34.70
2023-02-08T00:21:17.493Z,30.80
2023-02-08T00:23:46.691Z,30.30
2023-02-08T00:26:15.029Z,26.90
2023-02-08T00:28:43.811Z,28.10
2023-02-08T00:31:11.926Z,29.90
2023-02-08T00:33:39.967Z,23.30
2023-02-08T00:36:09.017Z,20.80
2023-02-08T00:38:37.146Z,24.70
2023-02-08T00:41:05.304Z,31.60
2023-02-08T00:43:33.751Z,34.80
2023-02-08T00:46:02.199Z,30.60
2023-02-08T00:48:31.765Z,28.50
2023-02-08T00:51:09.452Z,26.50
2023-02-08T00:53:39.478Z,31.10
2023-02-08T00:56:09.105Z,31.30
2023-02-08T00:58:37.520Z,29.20
2023-02-08T01:01:06.692Z,28.40
2023-02-08T01:03:37.230Z,30.10
2023-02-08T01:06:08.156Z,26.60
2023-02-08T01:08:36.523Z,19.70
2023-02-08T01:11:14.394Z,29.80
2023-02-08T01:13:42.438Z,27.60
2023-02-08T01:16:19.702Z,27.90
2023-02-08T01:18:50.851Z,32.50
2023-02-08T01:21:24.874Z,24.30
2023-02-08T01:23:53.785Z,32.00
2023-02-08T01:26:23.360Z,26.60
2023-02-08T01:28:52.824Z,23.20
2023-02-08T01:31:24.409Z,25.40
2023-02-08T01:33:53.225Z,31.00
2023-02-08T01:36:22.088Z,25.00
2023-02-08T01:38:50.540Z,26.00
2023-02-08T01:41:20.562Z,27.20
2023-02-08T01:44:13.725Z,31.90
2023-02-08T01:46:44.453Z,39.90
2023-02-08T01:49:18.296Z,37.40
2023-02-08T01:51:59.478Z,35.70
2023-02-08T01:54:32.865Z,31.50
2023-02-08T01:57:02.694Z,36.80
2023-02-08T01:59:40.822Z,33.10
2023-02-08T02:02:12.840Z,36.60
2023-02-08T02:04:41.690Z,30.60
2023-02-08T02:07:10.517Z,38.10
2023-02-08T02:09:53.578Z,37.90
2023-02-08T02:12:22.321Z,32.30
2023-02-08T02:14:51.855Z,30.00
2023-02-08T02:17:20.832Z,35.80
2023-02-08T02:19:57.989Z,34.00
2023-02-08T02:22:32.248Z,32.10
2023-02-08T02:25:26.433Z,37.40
2023-02-08T02:28:25.363Z,34.30
2023-02-08T02:31:13.048Z,31.40
2023-02-08T02:34:22.780Z,31.50
2023-02-08T02:37:00.115Z,27.40
2023-02-08T02:39:53.727Z,29.60
2023-02-08T02:43:07.416Z,25.30
2023-02-08T02:45:45.601Z,16.60
2023-02-08T02:48:22.653Z,25.50
2023-02-08T02:51:00.620Z,16.80
2023-02-08T02:53:36.748Z,24.60
2023-02-08T02:56:18.888Z,21.60
2023-02-08T02:58:49.685Z,26.20
2023-02-08T03:01:26.397Z,25.60
2023-02-08T03:03:54.983Z,20.60
2023-02-08T03:06:40.851Z,29.40
2023-02-08T03:09:16.522Z,21.80
2023-02-08T03:11:58.071Z,26.80
2023-02-08T03:14:50.190Z,25.00
2023-02-08T03:18:12.493Z,18.00
2023-02-08T03:20:47.119Z,24.60
2023-02-08T03:23:42.449Z,24.10
2023-02-08T03:26:36.749Z,27.00
2023-02-08T03:29:15.384Z,23.50
2023-02-08T03:31:47.685Z,27.30
2023-02-08T03:34:25.814Z,27.00
2023-02-08T03:36:56.180Z,26.10
2023-02-08T03:39:33.186Z,28.40
2023-02-08T03:42:08.224Z,29.90
2023-02-08T03:47:35.435Z,33.00
2023-02-08T03:50:09.659Z,32.90
2023-02-08T03:52:39.142Z,27.40
2023-02-08T03:55:14.114Z,34.90
2023-02-08T03:57:50.045Z,30.60
2023-02-08T04:00:19.170Z,32.00
2023-02-08T04:02:56.075Z,29.60
2023-02-08T04:05:25.214Z,40.30
2023-02-08T04:07:53.371Z,32.50
2023-02-08T04:10:21.824Z,30.30
2023-02-08T04:12:51.093Z,35.20
2023-02-08T04:15:19.176Z,39.00
2023-02-08T04:17:48.017Z,42.70
2023-02-08T04:20:16.191Z,35.50
2023-02-08T04:22:44.665Z,39.40
2023-02-08T04:25:12.734Z,30.90
2023-02-08T04:27:41.476Z,36.00
2023-02-08T04:30:10.484Z,29.30
2023-02-08T04:32:38.491Z,31.60
2023-02-08T04:35:07.193Z,32.60
2023-02-08T04:37:35.194Z,32.50
2023-02-08T04:40:03.855Z,36.90
2023-02-08T04:42:32.161Z,26.60
2023-02-08T04:45:02.671Z,35.40
2023-02-08T04:47:30.649Z,36.60
2023-02-08T04:49:58.719Z,30.40
2023-02-08T04:52:26.715Z,29.30
2023-02-08T04:54:54.686Z,36.40
2023-02-08T04:57:22.771Z,36.70
2023-02-08T04:59:50.994Z,28.20
2023-02-08T05:02:18.949Z,28.70
2023-02-08T05:04:47.081Z,37.00
2023-02-08T05:07:15.116Z,33.70
2023-02-08T05:09:44.734Z,40.70
2023-02-08T05:12:13.157Z,36.50
2023-02-08T05:14:41.104Z,42.70
2023-02-08T05:17:09.371Z,39.30
2023-02-08T05:19:38.225Z,32.80
2023-02-08T05:22:06.347Z,44.30
2023-02-08T05:24:35.180Z,46.00
2023-02-08T05:27:03.174Z,44.80
2023-02-08T05:29:31.376Z,39.10
2023-02-08T05:31:59.472Z,42.20
2023-02-08T05:34:27.741Z,41.90
2023-02-08T05:36:57.771Z,34.40
2023-02-08T05:39:25.795Z,41.20
2023-02-08T05:41:54.044Z,35.20
2023-02-08T05:44:22.282Z,50.10
2023-02-08T05:46:50.408Z,34.60
2023-02-08T05:49:18.484Z,39.00
2023-02-08T05:51:46.533Z,41.30
2023-02-08T05:54:14.750Z,41.00
2023-02-08T05:56:44.688Z,41.10
2023-02-08T05:59:12.685Z,32.90
2023-02-08T06:01:40.966Z,42.90
2023-02-08T06:04:09.014Z,53.20
2023-02-08T06:06:37.061Z,46.50
2023-02-08T06:09:07.650Z,42.70
2023-02-08T06:11:36.244Z,44.90
2023-02-08T06:14:05.407Z,42.60
2023-02-08T06:16:35.677Z,41.60
2023-02-08T06:19:04.731Z,39.60
2023-02-08T06:21:33.815Z,42.50
2023-02-08T06:24:03.925Z,42.60
2023-02-08T06:26:32.457Z,37.50
2023-02-08T06:29:01.069Z,38.90
2023-02-08T06:31:29.286Z,44.10
2023-02-08T06:33:57.933Z,42.60
2023-02-08T06:36:26.365Z,35.10
2023-02-08T06:38:54.635Z,37.10
2023-02-08T06:41:22.873Z,28.50
2023-02-08T06:43:51.022Z,40.40
2023-02-08T06:46:19.449Z,47.20
2023-02-08T06:48:47.491Z,43.50
2023-02-08T06:51:15.573Z,43.30
2023-02-08T06:53:43.857Z,42.50
2023-02-08T06:56:11.972Z,38.70
2023-02-08T06:58:40.151Z,25.80
2023-02-08T07:01:12.675Z,37.30
2023-02-08T07:03:41.892Z,37.60
2023-02-08T07:06:18.423Z,35.30
2023-02-08T07:08:47.855Z,45.20
2023-02-08T07:11:18.090Z,50.90
2023-02-08T07:13:48.790Z,54.20
2023-02-08T07:16:20.057Z,55.20
2023-02-08T07:18:50.400Z,55.80
2023-02-08T07:21:18.576Z,69.60
2023-02-08T07:23:47.113Z,83.40
2023-02-08T07:26:15.730Z,78.60
2023-02-08T07:28:44.249Z,74.60
2023-02-08T07:31:15.663Z,73.60
2023-02-08T07:33:46.009Z,71.60
2023-02-08T07:36:14.570Z,69.30
2023-02-08T07:38:46.118Z,69.10
2023-02-08T07:41:17.384Z,73.40
2023-02-08T07:43:47.456Z,76.90
2023-02-08T07:46:21.952Z,73.40
2023-02-08T07:48:52.863Z,70.70
2023-02-08T07:51:24.418Z,67.50
2023-02-08T07:53:52.910Z,69.80
2023-02-08T07:56:21.235Z,69.40
2023-02-08T07:58:49.338Z,71.10
2023-02-08T08:01:22.323Z,62.60
2023-02-08T08:03:55.427Z,68.60
2023-02-08T08:06:26.808Z,72.20
2023-02-08T08:08:55.041Z,65.40
2023-02-08T08:11:23.733Z,68.80
2023-02-08T08:13:53.899Z,61.80
2023-02-08T08:16:22.562Z,61.40
2023-02-08T08:18:50.928Z,68.40
2023-02-08T08:21:19.252Z,70.60
2023-02-08T08:23:47.511Z,68.20
2023-02-08T08:26:19.126Z,67.90
2023-02-08T08:28:48.311Z,69.20
2023-02-08T08:31:21.281Z,64.30
2023-02-08T08:33:51.293Z,64.80
2023-02-08T08:36:19.553Z,61.00
2023-02-08T08:38:50.198Z,73.30
2023-02-08T08:41:18.869Z,69.90
2023-02-08T08:43:47.120Z,60.10
2023-02-08T08:46:16.934Z,52.20
2023-02-08T08:48:46.297Z,59.50
2023-02-08T08:51:16.262Z,48.80
2023-02-08T08:53:44.349Z,52.70
2023-02-08T08:56:13.165Z,56.00
2023-02-08T08:58:43.492Z,66.00
2023-02-08T09:01:13.746Z,52.40
2023-02-08T09:03:42.150Z,64.10
2023-02-08T09:06:10.832Z,55.50
2023-02-08T09:08:39.564Z,51.30
2023-02-08T09:11:17.523Z,57.90
2023-02-08T09:13:47.821Z,49.40
2023-02-08T09:16:17.922Z,47.10
2023-02-08T09:18:47.047Z,54.30
2023-02-08T09:21:21.613Z,49.30
2023-02-08T09:23:50.059Z,47.50
2023-02-08T09:26:21.758Z,44.10
2023-02-08T09:28:49.918Z,40.20
2023-02-08T09:31:27.493Z,42.80
2023-02-08T09:33:59.820Z,43.80
2023-02-08T09:36:33.171Z,43.60
2023-02-08T09:39:10.738Z,47.30
2023-02-08T09:42:03.809Z,41.00
2023-02-08T09:44:53.686Z,43.80
2023-02-08T09:47:35.112Z,39.60
2023-02-08T09:50:13.928Z,36.60
2023-02-08T09:52:53.548Z,40.30
2023-02-08T09:55:28.035Z,42.30
2023-02-08T09:58:00.277Z,43.60
2023-02-08T10:00:38.862Z,37.80
2023-02-08T10:03:24.130Z,41.70
2023-02-08T10:05:53.703Z,40.90
2023-02-08T10:08:28.879Z,34.60
2023-02-08T10:11:05.932Z,47.30
2023-02-08T10:13:54.220Z,42.30
2023-02-08T10:16:44.458Z,38.30
2023-02-08T10:19:47.314Z,35.10
2023-02-08T10:22:48.504Z,36.10
2023-02-08T10:25:41.733Z,32.90
2023-02-08T10:28:40.563Z,33.80
2023-02-08T10:31:37.665Z,32.40
2023-02-08T10:34:47.109Z,31.60
2023-02-08T10:37:21.764Z,32.30
2023-02-08T10:39:53.160Z,32.20
2023-02-08T10:42:24.596Z,28.60
2023-02-08T10:45:24.722Z,34.20
2023-02-08T10:48:13.383Z,24.60
2023-02-08T10:50:48.114Z,26.90
2023-02-08T10:53:35.637Z,29.40
2023-02-08T10:56:05.197Z,27.90
2023-02-08T10:58:33.660Z,29.30
2023-02-08T11:01:10.365Z,27.30
2023-02-08T11:04:06.670Z,31.70
2023-02-08T11:06:36.886Z,23.20
2023-02-08T11:09:06.616Z,25.70
2023-02-08T11:11:38.222Z,27.60
2023-02-08T11:17:28.620Z,24.00
2023-02-08T11:19:59.222Z,38.00
2023-02-08T11:22:35.106Z,29.00
2023-02-08T11:25:08.233Z,30.30
2023-02-08T11:27:45.644Z,19.40
2023-02-08T11:30:17.281Z,17.20
2023-02-08T11:32:49.666Z,16.10
2023-02-08T11:35:22.056Z,16.30
2023-02-08T11:37:53.543Z,26.90
2023-02-08T11:40:34.752Z,17.00
2023-02-08T11:43:06.732Z,15.30
2023-02-08T11:45:40.905Z,17.70
2023-02-08T11:48:39.377Z,18.70
2023-02-08T11:51:08.494Z,14.20
2023-02-08T11:53:40.674Z,15.90
2023-02-08T11:56:19.259Z,16.70
2023-02-08T11:58:59.988Z,16.40
2023-02-08T12:01:40.228Z,12.60
2023-02-08T12:04:13.702Z,21.80
2023-02-08T12:07:09.420Z,13.40
2023-02-08T12:09:38.624Z,11.70
2023-02-08T12:12:25.588Z,17.80
2023-02-08T12:15:13.726Z,12.40
2023-02-08T12:18:15.346Z,10.40
2023-02-08T12:20:48.891Z,12.60
2023-02-08T12:23:20.233Z,18.60
2023-02-08T12:26:07.235Z,13.40
2023-02-08T12:28:44.246Z,17.20
2023-02-08T12:31:15.653Z,12.40
2023-02-08T12:34:07.415Z,15.00
2023-02-08T12:37:14.964Z,23.30
2023-02-08T12:40:40.220Z,14.00
2023-02-08T12:43:19.913Z,23.50
2023-02-08T12:46:14.851Z,15.70
2023-02-08T12:49:10.808Z,17.20
2023-02-08T12:51:51.383Z,14.90
2023-02-08T12:54:48.141Z,16.70
2023-02-08T12:57:21.029Z,19.70
2023-02-08T13:00:01.556Z,15.30
2023-02-08T13:02:36.004Z,23.20
2023-02-08T13:05:07.545Z,21.00
2023-02-08T13:07:42.967Z,17.00
2023-02-08T13:10:27.402Z,14.10
2023-02-08T13:13:01.624Z,16.10
2023-02-08T13:15:40.475Z,14.50
2023-02-08T13:18:19.240Z,14.90
2023-02-08T13:20:52.898Z,11.20
2023-02-08T13:23:51.688Z,14.90
2023-02-08T13:26:28.238Z,15.60
2023-02-08T13:29:01.168Z,16.30
2023-02-08T13:31:36.351Z,18.10
2023-02-08T13:34:18.186Z,17.10
2023-02-08T13:37:04.434Z,15.00
2023-02-08T13:39:42.168Z,12.10
2023-02-08T13:42:35.469Z,13.90
2023-02-08T13:45:12.206Z,15.30
2023-02-08T13:47:48.985Z,14.20
2023-02-08T13:50:44.457Z,13.00
2023-02-08T13:53:15.208Z,15.10
2023-02-08T13:55:51.431Z,11.80
2023-02-08T13:58:40.094Z,11.60
2023-02-08T14:01:19.564Z,15.10
2023-02-08T14:04:07.267Z,17.60
2023-02-08T14:06:50.746Z,24.00
2023-02-08T14:09:47.868Z,13.30
2023-02-08T14:12:41.529Z,15.80
2023-02-08T14:15:18.501Z,15.30
2023-02-08T14:17:52.704Z,19.20
2023-02-08T14:20:40.252Z,15.70
2023-02-08T14:23:31.555Z,14.90
2023-02-08T14:26:24.373Z,13.50
2023-02-08T14:31:52.982Z,14.00
2023-02-08T14:34:38.378Z,13.10
2023-02-08T14:37:23.510Z,16.80
2023-02-08T14:40:27.630Z,11.50
2023-02-08T14:43:04.854Z,12.20
2023-02-08T14:45:42.289Z,14.80
2023-02-08T14:48:33.104Z,23.30
2023-02-08T14:51:11.410Z,26.30
2023-02-08T14:53:52.944Z,12.70
2023-02-08T14:56:32.010Z,23.90
2023-02-08T14:59:02.692Z,39.70
2023-02-08T15:01:45.258Z,21.10
2023-02-08T15:04:15.766Z,30.40
2023-02-08T15:07:02.436Z,18.20
2023-02-08T15:09:36.767Z,23.60
2023-02-08T15:12:22.454Z,31.00
2023-02-08T15:14:54.317Z,16.40
2023-02-08T15:17:35.322Z,20.30
2023-02-08T15:20:25.849Z,25.40
2023-02-08T15:23:18.656Z,24.20
2023-02-08T15:26:23.372Z,21.20
2023-02-08T15:28:54.867Z,27.60
2023-02-08T15:31:30.123Z,22.70
2023-02-08T15:36:34.720Z,21.60
2023-02-08T15:39:11.324Z,22.10
2023-02-08T15:41:39.852Z,27.00
2023-02-08T15:44:25.881Z,22.50
2023-02-08T15:46:57.721Z,24.50
2023-02-08T15:49:41.659Z,29.50
2023-02-08T15:52:17.281Z,30.70
2023-02-08T15:54:47.400Z,38.20
2023-02-08T15:57:32.986Z,28.40
2023-02-08T16:02:35.391Z,31.30
2023-02-08T16:05:20.145Z,35.40
2023-02-08T16:07:52.031Z,29.80
2023-02-08T16:10:41.543Z,34.30
2023-02-08T16:13:21.011Z,28.80
2023-02-08T16:16:03.756Z,30.90
2023-02-08T16:18:46.633Z,35.10
2023-02-08T16:21:28.466Z,40.40
2023-02-08T16:24:00.589Z,40.90
2023-02-08T16:26:35.258Z,41.40
2023-02-08T16:29:17.365Z,39.80
2023-02-08T16:31:48.816Z,37.00
2023-02-08T16:34:23.262Z,37.60
2023-02-08T16:36:53.028Z,53.80
2023-02-08T16:39:31.957Z,61.60
2023-02-08T16:42:15.214Z,65.60
2023-02-08T16:45:00.571Z,54.00
2023-02-08T16:47:37.026Z,61.20
2023-02-08T16:50:10.836Z,59.40
2023-02-08T16:52:40.140Z,52.90
2023-02-08T16:55:19.259Z,51.30
2023-02-08T16:57:51.057Z,58.50
2023-02-08T17:00:39.566Z,61.60
2023-02-08T17:03:07.618Z,58.10
2023-02-08T17:05:39.917Z,46.60
2023-02-08T17:08:21.341Z,50.10
2023-02-08T17:10:55.538Z,43.00
2023-02-08T17:13:24.561Z,46.80
2023-02-08T17:15:53.909Z,40.40
2023-02-08T17:18:23.273Z,45.40
2023-02-08T17:20:57.924Z,40.50
2023-02-08T17:23:26.783Z,46.30
2023-02-08T17:25:57.214Z,42.10
2023-02-08T17:28:44.667Z,41.50
2023-02-08T17:31:14.965Z,36.80
2023-02-08T17:33:43.921Z,39.20
2023-02-08T17:36:14.669Z,50.10
2023-02-08T17:38:45.980Z,44.60
2023-02-08T17:41:17.027Z,49.30
2023-02-08T17:43:46.101Z,45.60
2023-02-08T17:46:20.877Z,54.80
2023-02-08T17:48:49.189Z,60.40
2023-02-08T17:51:21.125Z,50.50
2023-02-08T17:53:50.552Z,59.60
2023-02-08T17:56:23.901Z,69.10
2023-02-08T17:58:54.057Z,64.40
2023-02-08T18:01:25.895Z,59.40
2023-02-08T18:03:54.972Z,60.80
2023-02-08T18:06:25.256Z,59.10
2023-02-08T18:08:58.119Z,61.40
2023-02-08T18:11:26.149Z,56.40
2023-02-08T18:13:54.708Z,60.80
2023-02-08T18:16:25.926Z,55.40
2023-02-08T18:18:59.319Z,46.40
2023-02-08T18:21:33.434Z,44.20
2023-02-08T18:24:04.834Z,43.70
2023-02-08T18:26:34.622Z,47.30
2023-02-08T18:29:03.888Z,68.10
2023-02-08T18:31:32.927Z,75.30
2023-02-08T18:34:01.796Z,81.00
2023-02-08T18:36:33.061Z,78.30
2023-02-08T18:39:01.291Z,79.40
2023-02-08T18:41:33.088Z,82.80
2023-02-08T18:44:02.595Z,92.80
2023-02-08T18:46:30.687Z,91.70
2023-02-08T18:48:58.620Z,96.70
2023-02-08T18:51:28.004Z,84.90
2023-02-08T18:53:56.383Z,88.60
2023-02-08T18:56:27.366Z,88.10
2023-02-08T18:58:59.965Z,90.30
2023-02-08T19:01:28.328Z,85.30
2023-02-08T19:03:56.513Z,78.20
2023-02-08T19:06:28.667Z,76.20
2023-02-08T19:08:59.496Z,79.20
2023-02-08T19:11:38.211Z,82.00
2023-02-08T19:14:10.788Z,80.80
2023-02-08T19:16:39.574Z,87.80
2023-02-08T19:19:07.669Z,78.50
2023-02-08T19:21:37.348Z,73.60
2023-02-08T19:24:06.151Z,65.90
2023-02-08T19:26:40.186Z,75.60
2023-02-08T19:29:14.733Z,70.70
2023-02-08T19:31:50.196Z,67.00
2023-02-08T19:34:19.895Z,69.50
2023-02-08T19:36:53.605Z,63.50
2023-02-08T19:39:27.374Z,62.20
2023-02-08T19:41:58.638Z,74.60
2023-02-08T19:44:29.827Z,63.30
2023-02-08T19:46:58.412Z,53.50
2023-02-08T19:49:28.410Z,53.40
2023-02-08T19:51:57.135Z,37.40
2023-02-08T19:54:25.637Z,67.20
2023-02-08T19:56:54.945Z,63.20
2023-02-08T19:59:28.699Z,57.80
2023-02-08T20:01:56.742Z,50.80
2023-02-08T20:04:25.481Z,43.90
2023-02-08T20:06:54.333Z,51.90
2023-02-08T20:09:22.310Z,41.00
2023-02-08T20:12:00.135Z,38.80
2023-02-08T20:14:32.837Z,49.10
2023-02-08T20:17:03.753Z,57.90
2023-02-08T20:19:31.824Z,53.00
2023-02-08T20:22:00.343Z,37.00
2023-02-08T20:24:29.222Z,61.10
2023-02-08T20:26:58.300Z,57.30
2023-02-08T20:29:28.187Z,68.60
2023-02-08T20:31:57.889Z,62.10
2023-02-08T20:34:26.973Z,57.90
2023-02-08T20:37:06.913Z,64.40
2023-02-08T20:39:37.656Z,56.90
2023-02-08T20:42:06.381Z,65.20
2023-02-08T20:44:34.570Z,70.20
2023-02-08T20:47:07.534Z,54.60
2023-02-08T20:49:36.391Z,65.00
2023-02-08T20:52:05.084Z,64.10
2023-02-08T20:54:33.104Z,62.20
2023-02-08T20:57:01.485Z,70.10
2023-02-08T20:59:29.434Z,75.00
2023-02-08T21:01:59.461Z,64.50
2023-02-08T21:04:28.373Z,59.30
2023-02-08T21:06:56.306Z,70.50
2023-02-08T21:09:24.554Z,68.60
2023-02-08T21:11:52.758Z,68.70
2023-02-08T21:14:23.565Z,69.50
2023-02-08T21:16:56.238Z,72.00
2023-02-08T21:19:29.573Z,58.80
2023-02-08T21:22:01.289Z,38.20
2023-02-08T21:24:32.224Z,66.50
2023-02-08T21:27:01.111Z,65.50
2023-02-08T21:29:29.457Z,58.70
2023-02-08T21:31:58.735Z,72.80
2023-02-08T21:34:27.340Z,65.60
2023-02-08T21:36:55.487Z,67.10
2023-02-08T21:39:23.536Z,60.80
2023-02-08T21:41:52.578Z,61.60
2023-02-08T21:44:20.850Z,45.70
2023-02-08T21:46:48.765Z,69.40
2023-02-08T21:49:35.372Z,64.40
2023-02-08T21:52:21.821Z,58.60
2023-02-08T21:54:53.842Z,64.90
2023-02-08T21:57:22.131Z,55.60
2023-02-08T21:59:53.066Z,44.60
2023-02-08T22:02:25.993Z,62.00
2023-02-08T22:04:56.637Z,67.60
2023-02-08T22:07:25.848Z,41.80
2023-02-08T22:09:54.745Z,67.20
2023-02-08T22:12:24.004Z,73.60
2023-02-08T22:14:52.839Z,71.80
2023-02-08T22:17:20.862Z,60.60
2023-02-08T22:19:48.911Z,62.30
2023-02-08T22:22:17.089Z,65.70
2023-02-08T22:24:45.133Z,53.00
2023-02-08T22:27:13.096Z,65.60
2023-02-08T22:29:41.084Z,56.00
2023-02-08T22:32:10.187Z,59.70
2023-02-08T22:34:39.358Z,68.10
2023-02-08T22:37:07.456Z,67.40
2023-02-08T22:39:36.160Z,79.40
2023-02-08T22:42:08.660Z,86.90
2023-02-08T22:44:38.016Z,57.00
2023-02-08T22:47:07.468Z,73.50
2023-02-08T22:49:36.205Z,75.10
2023-02-08T22:52:06.852Z,70.20
2023-02-08T22:54:35.657Z,60.20
2023-02-08T22:57:06.160Z,70.70
2023-02-08T22:59:34.560Z,68.40
2023-02-08T23:02:02.882Z,60.20
2023-02-08T23:04:31.466Z,69.10
2023-02-08T23:07:02.526Z,61.20
2023-02-08T23:09:31.035Z,55.90
2023-02-08T23:11:59.152Z,59.50
2023-02-08T23:14:27.406Z,33.10
2023-02-08T23:16:56.044Z,66.90
2023-02-08T23:19:25.143Z,50.20
2023-02-08T23:21:53.443Z,71.20
2023-02-08T23:24:21.475Z,60.20
2023-02-08T23:26:49.448Z,51.70
2023-02-08T23:29:17.459Z,60.20
2023-02-08T23:31:46.748Z,57.60
2023-02-08T23:34:14.811Z,70.30
2023-02-08T23:36:43.648Z,31.40
2023-02-08T23:39:11.725Z,69.80
2023-02-08T23:41:39.875Z,65.50
2023-02-08T23:44:07.869Z,51.20
2023-02-08T23:46:35.852Z,66.20
2023-02-08T23:49:04.022Z,51.10
2023-02-08T23:51:32.527Z,63.20
2023-02-08T23:54:00.650Z,71.70
2023-02-08T23:56:32.123Z,59.50
2023-02-08T23:59:00.930Z,62.40
